SBAR Informações do Aeroporto

Informações da Pista
Pista 11 Comprimento 7218 ft Largura 148 ft
Elevação 0 ft Limite 0 ft Heading 0
Pista 29 Comprimento 7218 ft Largura 148 ft
Elevação 0 ft Limite 0 ft Heading 0
Frequências do Aeroporto
Tipo APP Nome ARACAJU AP Frequência 120.3 MHZ
Navaids do Aeroporto
Tipo VOR-DME Nome Aracaju Frequência 112000 KHZ
Tipo NDB Nome Aracaju Frequência 355 KHZ
Informações meteorológicas do aeroporto e NOTAM
ADDS - METARS form results

(1218 UTC 18 January 2019)
Data provider http://aviationweather.gov/metar/data/
 
METAR text: SBAR 181200Z 11007KT 9999 SCT023 29/21 Q1015
Conditions at: SBAR (ARACAJU/SANTA MA, BR) observed 1200 UTC 18 January 2019
Temperature: 29.0°C (84°F)
Dewpoint: 21.0°C (70°F) [RH = 62%]
Pressure (altimeter): 29.97 inches Hg (1015.0 mb)
Winds: from the ESE (110 degrees) at 8 MPH (7 knots; 3.6 m/s)
Visibility: 6 or more miles (10+ km)
Ceiling: at least 12,000 feet AGL
Clouds: scattered clouds at 2300 feet AGL
Weather: no significant weather observed at this time

Forecast for: SBAR (ARACAJU/SANTA MA, BR)
Text: TAF SBAR 181000Z 1812/1824 12011KT 9999 SCT020 TX30/1815Z TN27/1823Z RMK PEA
Forecast period: 1200 UTC 18 January 2019 to 0000 UTC 19 January 2019
Forecast type: FROM: standard forecast or significant change
Winds: from the ESE (120 degrees) at 13 MPH (11 knots; 5.7 m/s)
Visibility: 6 or more miles 10+ km)
Ceiling: at least 12,000 feet AGL
Clouds: scattered clouds at 2000 feet AGL
Weather: PE  (moderate ice pellets)